createdAt,value
2023-05-13T00:04:20.212Z,2.47
2023-05-13T00:09:18.591Z,2.78
2023-05-13T00:14:22.624Z,2.55
2023-05-13T00:19:39.052Z,2.30
2023-05-13T00:24:39.417Z,2.50
2023-05-13T00:30:00.907Z,3.35
2023-05-13T00:35:05.081Z,2.55
2023-05-13T00:40:11.855Z,3.20
2023-05-13T00:45:12.874Z,2.50
2023-05-13T00:50:16.906Z,2.85
2023-05-13T00:55:22.355Z,3.05
2023-05-13T01:00:23.770Z,3.60
2023-05-13T01:05:33.179Z,3.42
2023-05-13T01:10:38.757Z,3.05
2023-05-13T01:15:41.761Z,3.75
2023-05-13T01:20:48.443Z,3.60
2023-05-13T01:25:53.274Z,3.83
2023-05-13T01:30:58.658Z,4.00
2023-05-13T01:36:02.969Z,3.40
2023-05-13T01:41:03.241Z,3.58
2023-05-13T01:46:05.976Z,3.63
2023-05-13T01:51:07.878Z,3.33
2023-05-13T01:56:09.722Z,3.42
2023-05-13T02:01:12.821Z,3.42
2023-05-13T02:06:13.042Z,3.28
2023-05-13T02:11:11.655Z,2.97
2023-05-13T02:16:14.707Z,3.45
2023-05-13T02:21:12.121Z,3.08
2023-05-13T02:26:26.515Z,3.05
2023-05-13T02:31:32.672Z,2.92
2023-05-13T02:36:42.435Z,2.65
2023-05-13T02:41:58.536Z,3.33
2023-05-13T02:47:03.706Z,2.88
2023-05-13T02:52:10.693Z,3.00
2023-05-13T02:57:16.682Z,2.72
2023-05-13T03:02:32.385Z,2.70
2023-05-13T03:07:46.223Z,3.47
2023-05-13T03:12:52.830Z,3.25
2023-05-13T03:18:02.530Z,2.80
2023-05-13T03:23:05.650Z,3.35
2023-05-13T03:28:19.636Z,3.40
2023-05-13T03:33:26.745Z,3.88
2023-05-13T03:38:36.618Z,4.05
2023-05-13T03:43:45.830Z,3.10
2023-05-13T03:48:46.679Z,3.20
2023-05-13T03:53:52.982Z,3.63
2023-05-13T03:58:58.021Z,3.55
2023-05-13T04:04:10.780Z,4.68
2023-05-13T04:09:14.402Z,4.00
2023-05-13T04:14:21.680Z,3.60
2023-05-13T04:19:32.596Z,4.15
2023-05-13T04:29:53.535Z,4.55
2023-05-13T04:34:55.088Z,4.13
2023-05-13T04:40:02.300Z,4.30
2023-05-13T04:45:11.659Z,5.35
2023-05-13T04:50:32.872Z,5.22
2023-05-13T04:55:39.617Z,4.88
2023-05-13T05:00:42.987Z,4.50
2023-05-13T05:05:48.232Z,4.00
2023-05-13T05:10:53.801Z,4.38
2023-05-13T05:16:12.155Z,4.63
2023-05-13T05:21:33.304Z,5.05
2023-05-13T05:26:32.021Z,5.13
2023-05-13T05:31:40.873Z,5.93
2023-05-13T05:36:52.145Z,5.88
2023-05-13T05:42:11.371Z,5.77
2023-05-13T05:47:27.475Z,5.35
2023-05-13T05:52:28.390Z,5.07
2023-05-13T05:57:29.181Z,4.97
2023-05-13T06:02:34.003Z,3.55
2023-05-13T06:08:04.627Z,4.07
2023-05-13T06:13:10.773Z,4.45
2023-05-13T06:18:13.956Z,5.25
2023-05-13T06:23:49.060Z,4.78
2023-05-13T06:29:03.716Z,4.38
2023-05-13T06:34:45.779Z,3.30
2023-05-13T06:40:14.654Z,4.30
2023-05-13T06:47:08.238Z,4.13
2023-05-13T06:59:23.566Z,3.95
2023-05-13T07:04:43.666Z,3.78
2023-05-13T07:16:17.943Z,2.50
2023-05-13T07:21:33.953Z,1.67
2023-05-13T07:27:30.926Z,1.83
2023-05-13T07:33:20.886Z,1.73
2023-05-13T07:38:40.613Z,1.67
2023-05-13T07:43:55.680Z,1.98
2023-05-13T07:49:01.299Z,1.85
2023-05-13T07:54:07.712Z,1.60
2023-05-13T07:59:07.642Z,2.08
2023-05-13T08:04:05.542Z,1.83
2023-05-13T08:09:13.844Z,1.90
2023-05-13T08:19:49.112Z,1.88
2023-05-13T08:24:48.205Z,1.73
2023-05-13T08:29:50.850Z,2.33
2023-05-13T08:34:57.804Z,1.85
2023-05-13T08:40:08.783Z,1.90
2023-05-13T08:45:15.167Z,1.40
2023-05-13T08:50:23.298Z,1.40
2023-05-13T09:02:54.460Z,1.63
2023-05-13T13:45:34.333Z,2.40
2023-05-13T13:51:52.690Z,2.67
2023-05-13T14:09:17.743Z,3.35
2023-05-13T14:15:21.637Z,2.33
2023-05-13T14:33:37.689Z,2.72
2023-05-13T14:46:57.679Z,2.42
2023-05-13T14:53:05.220Z,3.80
2023-05-13T14:59:16.018Z,2.83
2023-05-13T15:05:29.361Z,3.70
2023-05-13T15:10:59.707Z,2.92
2023-05-13T15:16:25.079Z,3.63
2023-05-13T15:21:59.140Z,3.70
2023-05-13T15:33:27.140Z,1.80
2023-05-13T15:39:33.574Z,3.55
2023-05-13T15:45:53.441Z,4.53
2023-05-13T15:58:08.403Z,3.42
2023-05-13T16:10:04.797Z,5.30
2023-05-13T16:15:45.447Z,4.00
2023-05-13T16:27:41.267Z,3.75
2023-05-13T16:33:21.784Z,3.10
2023-05-13T16:38:59.257Z,2.47
2023-05-13T16:59:01.193Z,2.83
2023-05-13T17:11:28.854Z,2.75
2023-05-13T17:30:55.217Z,2.40
2023-05-13T17:36:17.739Z,3.17
2023-05-13T17:49:32.594Z,2.50
2023-05-13T17:54:32.257Z,3.13
2023-05-13T17:59:31.836Z,2.30
2023-05-13T18:04:29.373Z,2.50
2023-05-13T18:09:26.215Z,2.08
2023-05-13T18:14:23.229Z,2.05
2023-05-13T18:19:20.082Z,2.20
2023-05-13T18:24:17.594Z,2.60
2023-05-13T18:29:14.446Z,2.95
2023-05-13T18:34:11.181Z,2.72
2023-05-13T18:39:09.253Z,2.72
2023-05-13T18:44:07.107Z,2.90
2023-05-13T18:49:04.134Z,2.47
2023-05-13T18:54:01.154Z,3.10
2023-05-13T18:58:58.069Z,2.75
2023-05-13T19:03:56.573Z,2.60
2023-05-13T19:08:53.459Z,3.35
2023-05-13T19:13:50.232Z,2.80
2023-05-13T19:18:47.230Z,2.72
2023-05-13T19:23:44.882Z,2.88
2023-05-13T19:28:43.162Z,2.78
2023-05-13T19:33:40.441Z,2.92
2023-05-13T19:38:37.374Z,3.25
2023-05-13T19:43:35.182Z,3.20
2023-05-13T19:48:31.981Z,3.15
2023-05-13T19:53:28.780Z,2.92
2023-05-13T19:58:25.598Z,3.05
2023-05-13T20:03:23.110Z,2.92
2023-05-13T20:08:20.522Z,3.10
2023-05-13T20:13:17.351Z,3.22
2023-05-13T20:18:14.105Z,3.28
2023-05-13T20:23:13.773Z,3.00
2023-05-13T20:28:11.298Z,2.83
2023-05-13T20:33:08.217Z,3.78
2023-05-13T20:38:05.271Z,3.13
2023-05-13T20:43:02.857Z,3.17
2023-05-13T20:48:00.545Z,3.20
2023-05-13T20:52:57.512Z,2.90
2023-05-13T20:57:54.335Z,3.95
2023-05-13T21:02:52.470Z,3.50
2023-05-13T21:07:49.337Z,3.67
2023-05-13T21:12:47.394Z,3.65
2023-05-13T21:17:44.283Z,4.00
2023-05-13T21:22:41.760Z,3.72
2023-05-13T21:27:38.569Z,3.70
2023-05-13T21:32:35.489Z,3.70
2023-05-13T21:37:32.271Z,3.47
2023-05-13T21:42:30.310Z,3.53
2023-05-13T21:47:28.890Z,4.80
2023-05-13T21:52:25.689Z,3.85
2023-05-13T21:57:22.411Z,4.32
2023-05-13T22:02:20.006Z,4.22
2023-05-13T22:07:17.079Z,4.15
2023-05-13T22:12:13.882Z,4.57
2023-05-13T22:17:10.929Z,5.72
2023-05-13T22:22:08.524Z,5.20
2023-05-13T22:27:05.691Z,4.63
2023-05-13T22:32:02.875Z,4.70
2023-05-13T22:37:02.056Z,5.32
2023-05-13T22:41:59.567Z,4.68
2023-05-13T22:46:56.419Z,4.57
2023-05-13T22:51:53.237Z,4.57
2023-05-13T22:56:49.984Z,4.28
2023-05-13T23:01:48.175Z,4.55
2023-05-13T23:06:44.989Z,4.55
2023-05-13T23:11:41.832Z,4.15
2023-05-13T23:16:38.821Z,5.57
2023-05-13T23:21:36.740Z,4.63
2023-05-13T23:26:33.452Z,5.38
2023-05-13T23:31:30.250Z,4.85
2023-05-13T23:36:27.181Z,4.57
2023-05-13T23:41:24.655Z,4.60
2023-05-13T23:46:21.488Z,5.40
2023-05-13T23:51:18.468Z,5.78
2023-05-13T23:56:15.275Z,5.22
